Time;durP1;ratioP1;P1;durP2;ratioP2;P2;SDS_P1;SDS_P2;PMS_P1;PMS_P2;Temp;Humidity;BMP_temperature;BMP_pressure;BME280_temperature;BME280_humidity;BME280_pressure;Samples;Min_cycle;Max_cycle;Signal;HPM_P1;HPM_P2
2022/07/19 00:00:36;;;;;;;9.85;8.20;;;;;;;;;;5075936;28;20419;-75
2022/07/19 00:03:02;;;;;;;10.95;9.40;;;;;;;;;;5074398;28;20413;-75
2022/07/19 00:05:30;;;;;;;10.20;9.10;;;;;;;;;;5077092;28;20415;-75
2022/07/19 00:07:56;;;;;;;9.23;8.25;;;;;;;;;;5074583;28;20411;-75
2022/07/19 00:10:22;;;;;;;9.13;8.18;;;;;;;;;;5076483;28;20443;-75
2022/07/19 00:12:49;;;;;;;12.70;8.90;;;;;;;;;;5075443;28;20406;-75
2022/07/19 00:15:16;;;;;;;9.60;8.05;;;;;;;;;;5076453;28;20412;-75
2022/07/19 00:17:43;;;;;;;9.43;8.10;;;;;;;;;;5075871;28;20406;-75
2022/07/19 00:20:10;;;;;;;12.02;8.52;;;;;;;;;;5076489;28;20429;-75
2022/07/19 00:22:38;;;;;;;9.07;8.00;;;;;;;;;;5077033;28;20409;-75
2022/07/19 00:25:05;;;;;;;9.68;8.55;;;;;;;;;;5079833;28;20410;-75
2022/07/19 00:27:31;;;;;;;9.60;8.35;;;;;;;;;;5077966;28;20408;-75
2022/07/19 00:29:57;;;;;;;9.80;8.80;;;;;;;;;;5079825;28;20405;-75
2022/07/19 00:32:23;;;;;;;11.73;8.43;;;;;;;;;;5079348;28;20414;-75
2022/07/19 00:34:50;;;;;;;10.03;7.80;;;;;;;;;;5080246;28;20410;-75
2022/07/19 00:37:16;;;;;;;11.32;8.40;;;;;;;;;;5077246;28;20434;-75
2022/07/19 00:39:44;;;;;;;10.65;8.80;;;;;;;;;;5079495;28;20410;-74
2022/07/19 00:42:10;;;;;;;10.70;9.50;;;;;;;;;;5078558;28;20772;-75
2022/07/19 00:44:36;;;;;;;9.32;8.32;;;;;;;;;;5079209;28;20425;-75
2022/07/19 00:47:03;;;;;;;12.60;9.60;;;;;;;;;;5077975;28;20415;-75
2022/07/19 00:49:29;;;;;;;11.35;9.32;;;;;;;;;;5078411;28;20419;-75
2022/07/19 00:51:56;;;;;;;11.55;8.70;;;;;;;;;;5078755;28;20410;-75
2022/07/19 00:54:23;;;;;;;11.73;8.93;;;;;;;;;;5078978;28;20434;-75
2022/07/19 00:56:51;;;;;;;10.07;8.55;;;;;;;;;;5079716;28;20509;-75
2022/07/19 00:59:18;;;;;;;11.93;9.45;;;;;;;;;;5078485;28;20416;-75
2022/07/19 01:01:45;;;;;;;10.73;8.90;;;;;;;;;;5077148;28;20410;-75
2022/07/19 01:04:11;;;;;;;11.20;9.00;;;;;;;;;;5078454;28;20412;-75
2022/07/19 01:06:38;;;;;;;10.50;8.65;;;;;;;;;;5077899;28;20415;-75
2022/07/19 01:09:05;;;;;;;10.70;8.77;;;;;;;;;;5077316;28;20517;-75
2022/07/19 01:11:31;;;;;;;10.75;8.75;;;;;;;;;;5078970;28;20931;-75
2022/07/19 01:13:59;;;;;;;12.60;9.57;;;;;;;;;;5077347;28;20427;-75
2022/07/19 01:16:25;;;;;;;12.10;9.95;;;;;;;;;;5079988;28;20514;-75
2022/07/19 01:18:51;;;;;;;13.68;9.90;;;;;;;;;;5077274;28;20414;-75
2022/07/19 01:21:20;;;;;;;10.95;9.75;;;;;;;;;;5080113;28;20436;-74
2022/07/19 01:23:47;;;;;;;11.35;8.88;;;;;;;;;;5077992;28;20420;-75
2022/07/19 01:26:13;;;;;;;11.82;9.40;;;;;;;;;;5078606;28;20414;-75
2022/07/19 01:28:39;;;;;;;11.80;9.30;;;;;;;;;;5077871;28;20418;-75
2022/07/19 01:31:06;;;;;;;10.50;8.80;;;;;;;;;;5078953;28;20408;-75
2022/07/19 01:33:32;;;;;;;12.70;9.50;;;;;;;;;;5077251;28;20419;-75
2022/07/19 01:35:58;;;;;;;11.80;9.75;;;;;;;;;;5077243;28;20442;-74
2022/07/19 01:38:26;;;;;;;11.45;9.20;;;;;;;;;;5077497;28;20470;-75
2022/07/19 01:40:52;;;;;;;12.75;9.85;;;;;;;;;;5078860;28;20411;-75
2022/07/19 01:43:19;;;;;;;10.95;9.20;;;;;;;;;;5077706;28;20410;-75
2022/07/19 01:45:45;;;;;;;13.57;9.57;;;;;;;;;;5078031;28;20419;-75
2022/07/19 01:48:11;;;;;;;12.07;9.98;;;;;;;;;;5075843;28;20890;-75
2022/07/19 01:50:38;;;;;;;10.68;9.30;;;;;;;;;;5078358;28;20917;-75
2022/07/19 01:53:04;;;;;;;10.82;9.10;;;;;;;;;;5076709;28;20419;-75
2022/07/19 01:55:31;;;;;;;11.27;9.00;;;;;;;;;;5078979;28;20410;-75
2022/07/19 01:57:58;;;;;;;12.07;9.27;;;;;;;;;;5076908;28;20415;-75
2022/07/19 02:00:24;;;;;;;10.88;8.68;;;;;;;;;;5078125;28;20420;-75
2022/07/19 02:02:50;;;;;;;11.57;8.87;;;;;;;;;;5076891;28;20429;-75
2022/07/19 02:05:17;;;;;;;11.95;8.95;;;;;;;;;;5078007;28;20415;-75
2022/07/19 02:07:43;;;;;;;11.32;9.20;;;;;;;;;;5077216;28;20411;-75
2022/07/19 02:10:10;;;;;;;11.55;9.18;;;;;;;;;;5076711;28;20425;-75
2022/07/19 02:12:37;;;;;;;11.90;9.15;;;;;;;;;;5076408;28;20425;-74
2022/07/19 02:15:04;;;;;;;11.27;9.30;;;;;;;;;;5076172;28;20422;-75
2022/07/19 02:17:31;;;;;;;11.45;8.85;;;;;;;;;;5077082;28;20400;-75
2022/07/19 02:19:57;;;;;;;10.75;8.77;;;;;;;;;;5077778;28;20420;-75
2022/07/19 02:22:23;;;;;;;9.93;8.85;;;;;;;;;;5077882;28;20441;-75
2022/07/19 02:24:50;;;;;;;10.40;8.40;;;;;;;;;;5078726;28;20438;-75
2022/07/19 02:27:16;;;;;;;11.30;8.70;;;;;;;;;;5075434;28;20407;-74
2022/07/19 02:29:44;;;;;;;10.60;9.02;;;;;;;;;;5077582;28;20409;-75
2022/07/19 02:32:11;;;;;;;10.95;8.80;;;;;;;;;;5075598;28;20421;-75
2022/07/19 02:34:37;;;;;;;10.07;8.55;;;;;;;;;;5077715;28;20479;-75
2022/07/19 02:37:04;;;;;;;10.57;7.87;;;;;;;;;;5076676;28;20454;-75
2022/07/19 02:39:30;;;;;;;9.82;8.70;;;;;;;;;;5077214;28;20410;-75
2022/07/19 02:41:57;;;;;;;11.93;9.10;;;;;;;;;;5077420;28;20458;-74
2022/07/19 02:44:23;;;;;;;10.43;8.68;;;;;;;;;;5075772;28;20413;-74
2022/07/19 02:46:51;;;;;;;11.25;8.77;;;;;;;;;;5076119;28;20417;-74
2022/07/19 02:49:17;;;;;;;10.30;8.40;;;;;;;;;;5075674;28;20415;-75
2022/07/19 02:51:44;;;;;;;12.38;8.60;;;;;;;;;;5076794;28;20414;-75
2022/07/19 02:54:10;;;;;;;10.97;9.07;;;;;;;;;;5076257;28;20415;-75
2022/07/19 02:56:37;;;;;;;11.10;8.48;;;;;;;;;;5076672;28;20425;-75
2022/07/19 02:59:03;;;;;;;10.30;8.70;;;;;;;;;;5076671;28;20576;-75
2022/07/19 03:01:30;;;;;;;10.57;9.02;;;;;;;;;;5075194;28;20492;-75
2022/07/19 03:03:58;;;;;;;10.80;8.48;;;;;;;;;;5075451;28;20467;-75
2022/07/19 03:06:24;;;;;;;11.38;9.02;;;;;;;;;;5076382;28;20421;-75
2022/07/19 03:08:50;;;;;;;9.85;8.70;;;;;;;;;;5076772;28;20413;-75
2022/07/19 03:11:17;;;;;;;10.43;9.30;;;;;;;;;;5076734;28;20412;-75
2022/07/19 03:13:43;;;;;;;11.20;8.50;;;;;;;;;;5076765;28;20413;-75
2022/07/19 03:16:09;;;;;;;9.98;8.52;;;;;;;;;;5076222;28;20454;-75
2022/07/19 03:18:36;;;;;;;10.32;9.23;;;;;;;;;;5075983;28;20408;-74
2022/07/19 03:21:04;;;;;;;11.73;9.10;;;;;;;;;;5076802;28;20411;-74
2022/07/19 03:23:31;;;;;;;11.60;9.13;;;;;;;;;;5076298;28;20422;-74
2022/07/19 03:25:58;;;;;;;12.93;8.60;;;;;;;;;;5076775;28;20418;-75
2022/07/19 03:28:24;;;;;;;9.80;8.60;;;;;;;;;;5076824;28;20451;-75
2022/07/19 03:30:50;;;;;;;10.82;9.40;;;;;;;;;;5075842;28;20415;-75
2022/07/19 03:33:17;;;;;;;11.13;9.40;;;;;;;;;;5074612;28;20441;-75
2022/07/19 03:35:44;;;;;;;10.40;8.63;;;;;;;;;;5074888;28;20423;-75
2022/07/19 03:38:12;;;;;;;11.00;9.20;;;;;;;;;;5076444;28;20412;-74
2022/07/19 03:40:39;;;;;;;10.73;9.32;;;;;;;;;;5076799;28;20777;-75
2022/07/19 03:43:05;;;;;;;12.63;9.30;;;;;;;;;;5076576;28;20520;-75
2022/07/19 03:45:31;;;;;;;11.57;9.00;;;;;;;;;;5076176;28;20932;-75
2022/07/19 03:47:57;;;;;;;11.07;8.70;;;;;;;;;;5074718;28;20406;-75
2022/07/19 03:50:24;;;;;;;11.57;8.88;;;;;;;;;;5077028;28;20428;-75
2022/07/19 03:52:50;;;;;;;10.80;9.03;;;;;;;;;;5076368;28;20438;-75
2022/07/19 03:55:18;;;;;;;11.15;9.00;;;;;;;;;;5076298;28;20407;-74
2022/07/19 03:57:44;;;;;;;10.98;8.68;;;;;;;;;;5077284;28;20853;-75
2022/07/19 04:00:10;;;;;;;12.63;9.00;;;;;;;;;;5080140;28;20425;-75
2022/07/19 04:02:37;;;;;;;10.77;9.30;;;;;;;;;;5079459;28;20399;-75
2022/07/19 04:05:03;;;;;;;10.27;8.57;;;;;;;;;;5080409;28;20430;-75
2022/07/19 04:07:30;;;;;;;11.52;9.02;;;;;;;;;;5079684;28;21006;-75
2022/07/19 04:09:56;;;;;;;10.43;9.05;;;;;;;;;;5079335;28;20416;-75
2022/07/19 04:12:23;;;;;;;11.13;8.60;;;;;;;;;;5080090;28;20855;-75
2022/07/19 04:14:50;;;;;;;11.18;9.18;;;;;;;;;;5079170;28;20437;-75
2022/07/19 04:17:17;;;;;;;13.27;9.07;;;;;;;;;;5078284;28;20427;-75
2022/07/19 04:19:43;;;;;;;11.05;9.50;;;;;;;;;;5080401;28;20433;-75
2022/07/19 04:22:09;;;;;;;13.07;9.10;;;;;;;;;;5078191;28;20413;-75
2022/07/19 04:24:36;;;;;;;11.57;9.77;;;;;;;;;;5079016;28;20891;-75
2022/07/19 04:27:02;;;;;;;12.02;9.68;;;;;;;;;;5078369;28;20406;-75
2022/07/19 04:29:30;;;;;;;12.30;9.77;;;;;;;;;;5079935;28;20490;-75
2022/07/19 04:31:56;;;;;;;11.13;9.43;;;;;;;;;;5077994;28;20431;-75
2022/07/19 04:34:22;;;;;;;10.85;9.57;;;;;;;;;;5079911;28;20410;-75
2022/07/19 04:36:49;;;;;;;10.45;9.38;;;;;;;;;;5079941;28;20413;-75
2022/07/19 04:39:15;;;;;;;11.10;9.25;;;;;;;;;;5079205;28;20938;-75
2022/07/19 04:41:41;;;;;;;10.45;9.00;;;;;;;;;;5079839;28;20406;-74
2022/07/19 04:44:08;;;;;;;10.38;9.38;;;;;;;;;;5079179;28;20426;-75
2022/07/19 04:46:35;;;;;;;11.40;9.45;;;;;;;;;;5078600;28;20903;-75
2022/07/19 04:49:02;;;;;;;12.07;9.77;;;;;;;;;;5078525;28;20419;-75
2022/07/19 04:51:28;;;;;;;13.57;10.60;;;;;;;;;;5079198;28;20415;-75
2022/07/19 04:53:54;;;;;;;11.43;9.70;;;;;;;;;;5079484;28;20421;-75
2022/07/19 04:56:21;;;;;;;10.50;9.40;;;;;;;;;;5079240;28;20428;-75
2022/07/19 04:58:47;;;;;;;12.50;10.23;;;;;;;;;;5079443;28;21081;-75
2022/07/19 05:01:13;;;;;;;11.80;9.27;;;;;;;;;;5077131;28;20789;-74
2022/07/19 05:03:41;;;;;;;13.52;10.27;;;;;;;;;;5079052;28;20416;-75
2022/07/19 05:06:07;;;;;;;12.30;10.15;;;;;;;;;;5078583;28;20406;-75
2022/07/19 05:08:33;;;;;;;14.50;10.35;;;;;;;;;;5078312;28;20498;-75
2022/07/19 05:11:00;;;;;;;13.18;10.20;;;;;;;;;;5077514;28;20446;-75
2022/07/19 05:13:26;;;;;;;12.65;9.50;;;;;;;;;;5078779;28;20418;-75
2022/07/19 05:15:52;;;;;;;14.60;10.15;;;;;;;;;;5078690;28;20411;-74
2022/07/19 05:18:19;;;;;;;12.05;10.50;;;;;;;;;;5078800;28;20513;-75
2022/07/19 05:20:46;;;;;;;13.63;10.52;;;;;;;;;;5078788;28;20891;-75
2022/07/19 05:23:12;;;;;;;13.68;10.63;;;;;;;;;;5078299;28;20416;-74
2022/07/19 05:25:39;;;;;;;12.40;10.87;;;;;;;;;;5078066;28;20419;-74
2022/07/19 05:28:05;;;;;;;13.52;11.13;;;;;;;;;;5078074;28;20760;-75
2022/07/19 05:30:31;;;;;;;13.35;10.73;;;;;;;;;;5078580;28;20410;-74
2022/07/19 05:32:58;;;;;;;12.75;10.30;;;;;;;;;;5078102;28;20428;-75
2022/07/19 05:35:24;;;;;;;13.70;10.40;;;;;;;;;;5077586;28;20510;-75
2022/07/19 05:37:52;;;;;;;13.23;10.10;;;;;;;;;;5078882;28;20435;-74
2022/07/19 05:40:18;;;;;;;14.73;10.68;;;;;;;;;;5077936;28;20407;-74
2022/07/19 05:42:44;;;;;;;16.33;10.90;;;;;;;;;;5079372;28;20419;-75
2022/07/19 05:45:11;;;;;;;13.48;10.18;;;;;;;;;;5078238;28;20415;-75
2022/07/19 05:47:37;;;;;;;15.27;10.52;;;;;;;;;;5077141;28;20423;-75
2022/07/19 05:50:04;;;;;;;11.63;10.43;;;;;;;;;;5077298;28;20404;-74
2022/07/19 05:52:30;;;;;;;13.65;10.65;;;;;;;;;;5077364;28;20769;-75
2022/07/19 05:54:58;;;;;;;15.57;10.90;;;;;;;;;;5077768;28;20417;-75
2022/07/19 05:57:24;;;;;;;14.70;10.60;;;;;;;;;;5078371;28;20437;-74
2022/07/19 05:59:50;;;;;;;16.50;11.25;;;;;;;;;;5078039;28;20416;-75
2022/07/19 06:02:17;;;;;;;14.32;10.70;;;;;;;;;;5076835;28;20764;-75
2022/07/19 06:04:43;;;;;;;12.63;11.15;;;;;;;;;;5077716;28;20423;-74
2022/07/19 06:07:09;;;;;;;14.48;10.80;;;;;;;;;;5076923;28;20494;-75
2022/07/19 06:09:36;;;;;;;14.48;11.18;;;;;;;;;;5077755;28;20886;-74
2022/07/19 06:12:04;;;;;;;15.93;10.25;;;;;;;;;;5076188;28;20413;-75
2022/07/19 06:14:30;;;;;;;20.05;11.30;;;;;;;;;;5076901;28;20773;-75
2022/07/19 06:16:56;;;;;;;17.05;11.20;;;;;;;;;;5076763;28;20414;-75
2022/07/19 06:19:22;;;;;;;17.40;10.50;;;;;;;;;;5076833;28;20412;-75
2022/07/19 06:21:49;;;;;;;16.30;10.20;;;;;;;;;;5077565;28;20413;-74
2022/07/19 06:24:15;;;;;;;15.85;10.02;;;;;;;;;;5075586;28;20811;-74
2022/07/19 06:26:41;;;;;;;17.25;10.27;;;;;;;;;;5077939;28;20412;-74
2022/07/19 06:29:09;;;;;;;18.23;9.73;;;;;;;;;;5076720;28;20406;-74
2022/07/19 06:31:35;;;;;;;14.48;9.48;;;;;;;;;;5076944;28;20419;-74
2022/07/19 06:34:02;;;;;;;15.33;9.30;;;;;;;;;;5075902;28;20413;-74
2022/07/19 06:36:28;;;;;;;14.48;8.93;;;;;;;;;;5078058;28;20415;-75
2022/07/19 06:38:55;;;;;;;17.42;9.27;;;;;;;;;;5074943;28;20437;-73
2022/07/19 06:41:21;;;;;;;16.33;9.40;;;;;;;;;;5076654;28;20454;-74
2022/07/19 06:43:47;;;;;;;13.73;9.07;;;;;;;;;;5076862;28;20414;-74
2022/07/19 06:46:15;;;;;;;16.35;10.07;;;;;;;;;;5077484;28;20422;-74
2022/07/19 06:48:41;;;;;;;21.40;10.20;;;;;;;;;;5076314;28;20417;-74
2022/07/19 06:51:08;;;;;;;15.63;9.45;;;;;;;;;;5078022;28;20426;-74
2022/07/19 06:53:34;;;;;;;14.27;9.80;;;;;;;;;;5076769;28;20496;-74
2022/07/19 06:56:01;;;;;;;14.23;9.20;;;;;;;;;;5077431;28;20422;-74
2022/07/19 06:58:28;;;;;;;17.63;10.05;;;;;;;;;;5076391;28;20416;-74
2022/07/19 07:00:55;;;;;;;14.50;9.30;;;;;;;;;;5077209;28;20464;-74
2022/07/19 07:03:22;;;;;;;21.25;10.93;;;;;;;;;;5076057;28;20776;-74
2022/07/19 07:05:49;;;;;;;28.83;11.77;;;;;;;;;;5076670;28;20424;-74
2022/07/19 07:08:15;;;;;;;21.05;10.50;;;;;;;;;;5077063;28;20418;-74
2022/07/19 07:10:41;;;;;;;25.38;10.85;;;;;;;;;;5077682;28;20413;-74
2022/07/19 07:13:08;;;;;;;23.80;10.30;;;;;;;;;;5075745;28;20788;-74
2022/07/19 07:15:34;;;;;;;25.35;10.65;;;;;;;;;;5073962;28;20438;-74
2022/07/19 07:18:00;;;;;;;27.23;10.35;;;;;;;;;;5075904;28;20423;-74
2022/07/19 07:20:28;;;;;;;24.63;10.98;;;;;;;;;;5076848;28;20419;-74
2022/07/19 07:22:54;;;;;;;27.58;10.35;;;;;;;;;;5075899;28;20420;-74
2022/07/19 07:25:20;;;;;;;27.17;9.57;;;;;;;;;;5075883;28;20415;-74
2022/07/19 07:27:47;;;;;;;20.33;9.02;;;;;;;;;;5075972;28;20769;-74
2022/07/19 07:30:13;;;;;;;24.25;9.50;;;;;;;;;;5075616;28;20430;-74
2022/07/19 07:32:39;;;;;;;21.75;9.30;;;;;;;;;;5075130;28;20410;-74
2022/07/19 07:35:06;;;;;;;20.40;9.30;;;;;;;;;;5079443;28;20422;-74
2022/07/19 07:37:34;;;;;;;17.35;8.77;;;;;;;;;;5079915;28;20413;-74
2022/07/19 07:40:00;;;;;;;19.50;8.27;;;;;;;;;;5079332;28;20438;-74
2022/07/19 07:42:26;;;;;;;16.55;8.38;;;;;;;;;;5080807;28;21399;-74
2022/07/19 07:44:53;;;;;;;17.40;8.98;;;;;;;;;;5079412;28;20405;-74
2022/07/19 07:47:19;;;;;;;26.70;9.57;;;;;;;;;;5079264;28;20414;-74
2022/07/19 07:49:46;;;;;;;21.17;9.30;;;;;;;;;;5079040;28;20769;-74
2022/07/19 07:52:12;;;;;;;18.75;7.90;;;;;;;;;;5079834;28;20421;-74
2022/07/19 07:54:40;;;;;;;24.05;8.90;;;;;;;;;;5079783;28;20407;-74
2022/07/19 07:57:06;;;;;;;21.98;9.13;;;;;;;;;;5081465;28;20413;-74
2022/07/19 07:59:32;;;;;;;21.17;8.77;;;;;;;;;;5080108;28;20961;-74
2022/07/19 08:01:59;;;;;;;21.77;7.80;;;;;;;;;;5080202;28;20423;-74
2022/07/19 08:04:25;;;;;;;21.85;8.50;;;;;;;;;;5078893;28;20812;-74
2022/07/19 08:06:52;;;;;;;20.15;7.85;;;;;;;;;;5079652;28;20509;-74
2022/07/19 08:09:18;;;;;;;19.98;8.32;;;;;;;;;;5079313;28;20400;-74
2022/07/19 08:11:46;;;;;;;18.05;8.07;;;;;;;;;;5081157;28;20915;-74
2022/07/19 08:14:12;;;;;;;16.23;7.72;;;;;;;;;;5079680;28;20430;-74
2022/07/19 08:16:38;;;;;;;15.35;7.57;;;;;;;;;;5080511;28;21012;-74
2022/07/19 08:19:05;;;;;;;20.60;7.60;;;;;;;;;;5079191;28;20442;-74
2022/07/19 08:21:31;;;;;;;16.70;7.23;;;;;;;;;;5080756;28;20422;-74
2022/07/19 08:23:58;;;;;;;17.00;7.80;;;;;;;;;;5077923;28;20417;-74
2022/07/19 08:26:24;;;;;;;18.83;8.18;;;;;;;;;;5080000;28;20418;-74
2022/07/19 08:28:52;;;;;;;18.90;7.57;;;;;;;;;;5079005;28;20421;-74
2022/07/19 08:31:18;;;;;;;19.40;7.40;;;;;;;;;;5080180;28;20468;-74
2022/07/19 08:33:45;;;;;;;16.88;7.80;;;;;;;;;;5079674;28;20419;-74
2022/07/19 08:36:11;;;;;;;17.75;7.60;;;;;;;;;;5079365;28;20783;-74
2022/07/19 08:38:38;;;;;;;19.33;7.40;;;;;;;;;;5079484;28;20415;-74
2022/07/19 08:41:05;;;;;;;17.75;7.72;;;;;;;;;;5079184;28;20435;-74
2022/07/19 08:43:31;;;;;;;13.80;6.93;;;;;;;;;;5079304;28;20414;-74
2022/07/19 08:46:00;;;;;;;15.10;7.00;;;;;;;;;;5079166;28;20417;-74
2022/07/19 08:48:27;;;;;;;14.85;7.00;;;;;;;;;;5078162;28;20457;-74
2022/07/19 08:50:54;;;;;;;18.02;7.30;;;;;;;;;;5079279;28;20418;-74
2022/07/19 08:53:21;;;;;;;15.03;7.00;;;;;;;;;;5078903;28;20418;-74
2022/07/19 08:55:49;;;;;;;11.75;6.20;;;;;;;;;;5079442;28;20416;-74
2022/07/19 08:58:14;;;;;;;12.65;6.80;;;;;;;;;;5076772;28;20411;-74
2022/07/19 09:00:41;;;;;;;12.82;5.70;;;;;;;;;;5080109;28;20563;-74
2022/07/19 09:03:08;;;;;;;10.10;5.33;;;;;;;;;;5077316;28;20784;-74
2022/07/19 09:05:35;;;;;;;7.30;5.32;;;;;;;;;;5079992;28;20410;-74
2022/07/19 09:08:04;;;;;;;10.00;5.30;;;;;;;;;;5078913;28;20430;-74
2022/07/19 09:10:31;;;;;;;9.15;4.85;;;;;;;;;;5079835;28;20417;-74
2022/07/19 09:12:58;;;;;;;7.53;5.22;;;;;;;;;;5078393;28;20414;-74
2022/07/19 09:15:36;;;;;;;6.23;4.73;;;;;;;;;;5078229;28;20406;-75
2022/07/19 09:18:05;;;;;;;6.40;4.70;;;;;;;;;;5079088;28;20415;-74
2022/07/19 09:20:33;;;;;;;4.78;4.25;;;;;;;;;;5079469;28;20430;-74
2022/07/19 09:23:01;;;;;;;8.95;4.70;;;;;;;;;;5078359;28;20790;-74
2022/07/19 09:25:33;;;;;;;7.18;4.40;;;;;;;;;;5078867;28;20903;-74
2022/07/19 09:27:59;;;;;;;6.78;3.90;;;;;;;;;;5078414;28;20417;-75
2022/07/19 09:30:32;;;;;;;6.63;4.68;;;;;;;;;;5078028;28;20421;-74
2022/07/19 09:33:05;;;;;;;9.40;4.40;;;;;;;;;;5073891;28;20782;-75
2022/07/19 09:35:35;;;;;;;5.63;4.60;;;;;;;;;;5078364;28;20415;-75
2022/07/19 09:38:14;;;;;;;7.40;4.43;;;;;;;;;;5078375;28;20421;-74
2022/07/19 09:40:40;;;;;;;5.20;4.18;;;;;;;;;;5078732;28;20404;-74
2022/07/19 09:43:06;;;;;;;7.20;3.80;;;;;;;;;;5077426;28;20496;-74
2022/07/19 09:45:33;;;;;;;6.40;4.20;;;;;;;;;;5078474;28;20414;-75
2022/07/19 09:48:00;;;;;;;4.35;3.90;;;;;;;;;;5075471;28;20412;-74
2022/07/19 09:50:26;;;;;;;7.10;4.00;;;;;;;;;;5076483;28;20422;-74
2022/07/19 09:52:54;;;;;;;4.85;4.20;;;;;;;;;;5077626;28;20415;-74
2022/07/19 09:55:21;;;;;;;5.38;4.20;;;;;;;;;;5076935;28;20410;-74
2022/07/19 09:57:47;;;;;;;5.43;4.43;;;;;;;;;;5077480;28;20407;-75
2022/07/19 10:00:15;;;;;;;7.85;4.85;;;;;;;;;;5077870;28;20432;-74
2022/07/19 10:02:42;;;;;;;5.93;4.35;;;;;;;;;;5077180;28;20404;-74
2022/07/19 10:05:10;;;;;;;5.30;4.38;;;;;;;;;;5076473;28;20410;-74
2022/07/19 10:07:37;;;;;;;4.43;4.00;;;;;;;;;;5076739;28;20460;-75
2022/07/19 10:10:05;;;;;;;5.30;4.25;;;;;;;;;;5078789;28;20451;-75
2022/07/19 10:12:32;;;;;;;8.68;4.40;;;;;;;;;;5077592;28;20418;-74
2022/07/19 10:14:58;;;;;;;6.07;4.25;;;;;;;;;;5078068;28;20426;-75
2022/07/19 10:17:28;;;;;;;4.90;4.40;;;;;;;;;;5078209;28;20419;-75
2022/07/19 10:19:54;;;;;;;5.53;4.35;;;;;;;;;;5077699;28;20477;-75
2022/07/19 10:22:23;;;;;;;6.20;3.97;;;;;;;;;;5076622;28;20412;-75
2022/07/19 10:24:51;;;;;;;9.77;4.10;;;;;;;;;;5077101;28;20515;-74
2022/07/19 10:27:19;;;;;;;6.00;4.30;;;;;;;;;;5075639;28;20425;-75
2022/07/19 10:29:46;;;;;;;6.00;3.93;;;;;;;;;;5077203;28;20412;-74
2022/07/19 10:32:13;;;;;;;8.10;4.10;;;;;;;;;;5075846;28;20430;-74
2022/07/19 10:34:39;;;;;;;6.47;3.67;;;;;;;;;;5077928;28;20411;-75
2022/07/19 10:37:06;;;;;;;5.20;3.50;;;;;;;;;;5076209;28;20414;-74
2022/07/19 10:39:34;;;;;;;4.30;3.80;;;;;;;;;;5076075;28;20416;-75
2022/07/19 10:42:11;;;;;;;6.53;3.75;;;;;;;;;;5076143;28;20423;-74
2022/07/19 10:44:52;;;;;;;4.75;3.25;;;;;;;;;;5077397;28;20410;-74
2022/07/19 10:47:19;;;;;;;4.50;3.47;;;;;;;;;;5074248;28;20780;-75
2022/07/19 10:49:47;;;;;;;4.05;3.33;;;;;;;;;;5076026;28;20408;-75
2022/07/19 10:52:31;;;;;;;5.18;3.08;;;;;;;;;;5075707;28;20481;-75
2022/07/19 10:55:12;;;;;;;7.30;3.60;;;;;;;;;;5060706;28;20425;-75
2022/07/19 10:57:39;;;;;;;4.23;3.27;;;;;;;;;;5075397;28;20402;-74
2022/07/19 11:00:16;;;;;;;5.50;3.33;;;;;;;;;;5076369;28;20435;-74
2022/07/19 11:02:44;;;;;;;3.50;3.00;;;;;;;;;;5074813;28;20417;-74
2022/07/19 11:05:21;;;;;;;4.32;3.00;;;;;;;;;;5076331;28;20425;-74
2022/07/19 11:07:48;;;;;;;5.37;3.10;;;;;;;;;;5075283;28;20412;-75
2022/07/19 11:10:21;;;;;;;4.72;3.40;;;;;;;;;;5076029;28;20780;-74
2022/07/19 11:12:47;;;;;;;3.42;3.00;;;;;;;;;;5076701;28;20425;-74
2022/07/19 11:15:14;;;;;;;3.60;3.30;;;;;;;;;;5075587;28;20411;-74
2022/07/19 11:17:40;;;;;;;4.10;3.50;;;;;;;;;;5076258;28;20419;-74
2022/07/19 11:20:10;;;;;;;3.80;3.30;;;;;;;;;;5078224;28;20425;-75
2022/07/19 11:22:39;;;;;;;3.40;3.10;;;;;;;;;;5077289;28;20918;-74
2022/07/19 11:25:05;;;;;;;3.53;2.90;;;;;;;;;;5077594;28;20417;-74
2022/07/19 11:27:33;;;;;;;3.93;2.90;;;;;;;;;;5077654;28;20427;-74
2022/07/19 11:30:00;;;;;;;2.90;2.70;;;;;;;;;;5075345;28;20913;-75
2022/07/19 11:32:27;;;;;;;3.03;2.72;;;;;;;;;;5076347;28;20402;-74
2022/07/19 11:34:54;;;;;;;2.90;2.60;;;;;;;;;;5077513;28;20425;-75
2022/07/19 11:37:24;;;;;;;4.28;2.90;;;;;;;;;;5076712;28;20896;-74
2022/07/19 11:39:51;;;;;;;4.10;2.90;;;;;;;;;;5076408;28;20801;-75
2022/07/19 11:42:27;;;;;;;3.50;2.92;;;;;;;;;;5076186;28;20425;-75
2022/07/19 11:44:54;;;;;;;4.50;3.10;;;;;;;;;;5076189;28;20409;-75
2022/07/19 11:47:20;;;;;;;3.80;3.00;;;;;;;;;;5074297;28;20416;-75
2022/07/19 11:49:47;;;;;;;3.65;2.92;;;;;;;;;;5075703;28;20465;-75
2022/07/19 11:52:13;;;;;;;4.67;3.37;;;;;;;;;;5075808;28;20993;-75
2022/07/19 11:54:41;;;;;;;4.38;3.00;;;;;;;;;;5076585;28;20431;-75
2022/07/19 11:57:22;;;;;;;3.38;3.08;;;;;;;;;;5075436;28;20412;-75
2022/07/19 11:59:49;;;;;;;4.40;2.90;;;;;;;;;;5075272;28;20438;-75
2022/07/19 12:02:15;;;;;;;4.35;3.00;;;;;;;;;;5075627;28;20416;-75
2022/07/19 12:04:41;;;;;;;4.05;2.80;;;;;;;;;;5074501;28;20414;-75
2022/07/19 12:07:08;;;;;;;5.40;3.50;;;;;;;;;;5075502;28;20414;-76
2022/07/19 12:09:34;;;;;;;4.05;2.75;;;;;;;;;;5076542;28;20409;-74
2022/07/19 12:12:12;;;;;;;3.15;2.85;;;;;;;;;;5075362;28;20413;-74
2022/07/19 12:14:40;;;;;;;4.93;2.95;;;;;;;;;;5075917;28;20417;-74
2022/07/19 12:17:10;;;;;;;4.00;2.70;;;;;;;;;;5074374;28;20414;-75
2022/07/19 12:19:36;;;;;;;5.30;2.67;;;;;;;;;;5078703;28;20469;-74
2022/07/19 12:22:02;;;;;;;5.28;2.70;;;;;;;;;;5079331;28;20417;-75
2022/07/19 12:24:30;;;;;;;3.80;3.25;;;;;;;;;;5080747;28;20945;-75
2022/07/19 12:26:58;;;;;;;3.70;2.70;;;;;;;;;;5079415;28;20836;-75
2022/07/19 12:29:26;;;;;;;4.50;3.20;;;;;;;;;;5080433;28;20416;-75
2022/07/19 12:31:56;;;;;;;3.30;2.92;;;;;;;;;;5080042;28;20418;-74
2022/07/19 12:34:22;;;;;;;4.60;3.30;;;;;;;;;;5079905;28;20415;-75
2022/07/19 12:36:48;;;;;;;4.25;3.25;;;;;;;;;;5079986;28;20418;-75
2022/07/19 12:39:19;;;;;;;4.30;2.90;;;;;;;;;;5090925;23;20395;-76
2022/07/19 12:41:53;;;;;;;5.15;3.03;;;;;;;;;;5059915;28;20425;-76
2022/07/19 12:44:19;;;;;;;3.33;3.13;;;;;;;;;;5059490;28;20753;-74
2022/07/19 12:46:47;;;;;;;4.55;3.30;;;;;;;;;;5059697;28;20413;-74
2022/07/19 12:49:13;;;;;;;4.57;3.45;;;;;;;;;;5058648;28;20422;-73
2022/07/19 12:51:43;;;;;;;3.20;3.00;;;;;;;;;;5059859;28;20400;-74
2022/07/19 12:54:09;;;;;;;3.70;3.00;;;;;;;;;;5059515;28;20508;-74
2022/07/19 12:56:36;;;;;;;4.95;3.28;;;;;;;;;;5057540;28;20419;-74
2022/07/19 13:01:47;;;;;;;4.43;3.40;;;;;;;;;;5059617;28;20405;-74
2022/07/19 13:04:13;;;;;;;3.45;3.15;;;;;;;;;;5057672;28;20424;-74
2022/07/19 13:06:40;;;;;;;5.35;3.40;;;;;;;;;;5058750;28;20413;-74
2022/07/19 13:09:06;;;;;;;5.20;3.97;;;;;;;;;;5057144;28;20427;-74
2022/07/19 13:11:32;;;;;;;4.00;3.60;;;;;;;;;;5060209;28;20407;-74
2022/07/19 13:13:59;;;;;;;4.43;3.75;;;;;;;;;;5057971;28;20416;-74
2022/07/19 13:16:26;;;;;;;4.03;3.60;;;;;;;;;;5059263;28;20411;-74
2022/07/19 13:18:53;;;;;;;5.18;4.00;;;;;;;;;;5058209;28;20766;-74
2022/07/19 13:21:21;;;;;;;5.40;4.00;;;;;;;;;;5058304;28;20809;-74
2022/07/19 13:23:47;;;;;;;5.63;3.92;;;;;;;;;;5058394;28;20421;-74
2022/07/19 13:26:14;;;;;;;6.18;4.03;;;;;;;;;;5058183;28;20904;-74
2022/07/19 13:28:40;;;;;;;5.00;4.20;;;;;;;;;;5058302;28;20509;-74
2022/07/19 13:31:06;;;;;;;4.72;4.32;;;;;;;;;;5056794;28;20426;-74
2022/07/19 13:33:33;;;;;;;5.78;3.95;;;;;;;;;;5058705;28;20416;-74
2022/07/19 13:36:00;;;;;;;5.28;4.30;;;;;;;;;;5058718;28;20427;-74
2022/07/19 13:38:27;;;;;;;5.80;4.40;;;;;;;;;;5058840;28;20425;-74
2022/07/19 13:40:53;;;;;;;4.25;3.70;;;;;;;;;;5059168;28;20440;-74
2022/07/19 13:43:19;;;;;;;4.20;3.60;;;;;;;;;;5058100;28;20423;-74
2022/07/19 13:45:46;;;;;;;5.60;4.07;;;;;;;;;;5058264;28;20413;-74
2022/07/19 13:48:12;;;;;;;4.70;4.30;;;;;;;;;;5054393;28;20408;-74
2022/07/19 13:50:38;;;;;;;4.82;4.15;;;;;;;;;;5059301;28;20409;-73
2022/07/19 13:53:06;;;;;;;5.38;4.15;;;;;;;;;;5056763;28;20937;-74
2022/07/19 13:55:33;;;;;;;5.55;4.07;;;;;;;;;;5058078;28;20432;-74
2022/07/19 13:57:59;;;;;;;6.45;4.25;;;;;;;;;;5056484;28;20416;-74
2022/07/19 14:00:25;;;;;;;5.55;4.10;;;;;;;;;;5058364;28;20451;-74
2022/07/19 14:02:52;;;;;;;5.87;4.20;;;;;;;;;;5056684;28;20893;-73
2022/07/19 14:05:18;;;;;;;4.28;3.60;;;;;;;;;;5055317;28;20922;-74
2022/07/19 14:07:44;;;;;;;4.72;4.07;;;;;;;;;;5057167;28;20415;-74
2022/07/19 14:10:12;;;;;;;4.70;3.80;;;;;;;;;;5057672;28;20417;-72
2022/07/19 14:12:38;;;;;;;6.53;4.30;;;;;;;;;;5056970;28;20420;-74
2022/07/19 14:15:05;;;;;;;4.45;4.05;;;;;;;;;;5056300;28;20473;-74
2022/07/19 14:17:31;;;;;;;6.18;4.40;;;;;;;;;;5057203;28;20414;-74
2022/07/19 14:19:58;;;;;;;5.40;4.32;;;;;;;;;;5057242;28;20417;-73
2022/07/19 14:22:24;;;;;;;7.60;4.40;;;;;;;;;;5056407;28;20419;-73
2022/07/19 14:24:50;;;;;;;7.18;4.60;;;;;;;;;;5057735;28;20407;-74
2022/07/19 14:27:18;;;;;;;6.15;4.38;;;;;;;;;;5056419;28;20409;-74
2022/07/19 14:29:44;;;;;;;6.45;4.30;;;;;;;;;;5057801;28;20416;-74
2022/07/19 14:32:11;;;;;;;5.25;4.25;;;;;;;;;;5055299;28;20782;-74
2022/07/19 14:34:39;;;;;;;5.80;4.18;;;;;;;;;;5058199;28;20421;-74